createdAt,value
2018-05-10T00:00:56.515Z,0
2018-05-10T00:02:05.355Z,0
2018-05-10T00:03:14.192Z,0
2018-05-10T00:04:23.314Z,0
2018-05-10T00:05:32.153Z,0
2018-05-10T00:06:40.994Z,0
2018-05-10T00:07:49.903Z,0
2018-05-10T00:08:59.022Z,0
2018-05-10T00:10:08.138Z,0
2018-05-10T00:11:16.976Z,0
2018-05-10T00:12:25.818Z,0
2018-05-10T00:13:34.931Z,0
2018-05-10T00:14:43.771Z,0
2018-05-10T00:15:52.615Z,0
2018-05-10T00:17:01.457Z,0
2018-05-10T00:18:10.671Z,0
2018-05-10T00:19:19.514Z,0
2018-05-10T00:20:28.360Z,0
2018-05-10T00:21:37.199Z,0
2018-05-10T00:22:46.034Z,0
2018-05-10T00:23:55.077Z,0
2018-05-10T00:25:04.199Z,0
2018-05-10T00:26:13.031Z,0
2018-05-10T00:27:21.868Z,0
2018-05-10T00:28:30.703Z,0
2018-05-10T00:29:39.974Z,0
2018-05-10T00:30:48.822Z,0
2018-05-10T00:31:57.662Z,0
2018-05-10T00:33:06.495Z,0
2018-05-10T00:34:15.337Z,0
2018-05-10T00:35:24.521Z,0
2018-05-10T00:36:33.358Z,0
2018-05-10T00:37:42.196Z,0
2018-05-10T00:38:51.308Z,0
2018-05-10T00:40:00.143Z,0
2018-05-10T00:41:08.995Z,0
2018-05-10T00:42:18.106Z,0
2018-05-10T00:43:26.954Z,0
2018-05-10T00:44:35.792Z,0
2018-05-10T00:45:44.629Z,0
2018-05-10T00:46:53.564Z,0
2018-05-10T00:48:02.401Z,0
2018-05-10T00:49:11.241Z,0
2018-05-10T00:50:20.353Z,0
2018-05-10T00:51:29.191Z,0
2018-05-10T00:52:38.081Z,0
2018-05-10T00:53:46.919Z,0
2018-05-10T00:54:55.755Z,0
2018-05-10T00:56:04.589Z,0
2018-05-10T00:57:13.425Z,0
2018-05-10T00:58:22.463Z,0
2018-05-10T00:59:31.306Z,0
2018-05-10T01:00:40.417Z,0
2018-05-10T01:01:49.257Z,0
2018-05-10T01:02:58.093Z,0
2018-05-10T01:04:07.555Z,0
2018-05-10T01:05:16.393Z,0
2018-05-10T01:06:25.231Z,0
2018-05-10T01:07:34.342Z,0
2018-05-10T01:08:43.454Z,0
2018-05-10T01:09:52.438Z,0
2018-05-10T01:11:01.277Z,0
2018-05-10T01:12:10.213Z,0
2018-05-10T01:13:19.053Z,0
2018-05-10T01:14:27.894Z,0
2018-05-10T01:15:36.878Z,0
2018-05-10T01:16:45.716Z,0
2018-05-10T01:17:54.554Z,0
2018-05-10T01:19:03.667Z,0
2018-05-10T01:20:12.524Z,0
2018-05-10T01:21:21.635Z,0
2018-05-10T01:22:30.475Z,0
2018-05-10T01:23:39.308Z,0
2018-05-10T01:24:48.418Z,0
2018-05-10T01:25:57.257Z,0
2018-05-10T01:27:06.245Z,0
2018-05-10T01:28:15.082Z,0
2018-05-10T01:29:23.915Z,0
2018-05-10T01:30:33.023Z,0
2018-05-10T01:31:41.858Z,0
2018-05-10T01:32:50.701Z,0
2018-05-10T01:33:59.540Z,0
2018-05-10T01:35:08.648Z,0
2018-05-10T01:36:17.766Z,0
2018-05-10T01:37:26.603Z,0
2018-05-10T01:38:35.791Z,0
2018-05-10T01:39:44.631Z,0
2018-05-10T01:40:53.468Z,0
2018-05-10T01:42:02.311Z,0
2018-05-10T01:43:11.421Z,0
2018-05-10T01:44:20.308Z,0
2018-05-10T01:45:29.144Z,0
2018-05-10T01:46:37.981Z,0
2018-05-10T01:47:46.818Z,0
2018-05-10T01:48:55.927Z,0
2018-05-10T01:50:05.045Z,0
2018-05-10T01:51:13.886Z,0
2018-05-10T01:52:22.996Z,0
2018-05-10T01:53:31.834Z,0
2018-05-10T01:54:40.670Z,0
2018-05-10T01:55:50.211Z,0
2018-05-10T01:56:59.324Z,0
2018-05-10T01:58:08.162Z,0
2018-05-10T01:59:17.000Z,0
2018-05-10T02:00:25.840Z,0
2018-05-10T02:01:35.149Z,0
2018-05-10T02:02:43.988Z,0
2018-05-10T02:03:52.830Z,0
2018-05-10T02:05:01.670Z,0
2018-05-10T02:06:10.508Z,0
2018-05-10T02:07:19.717Z,0
2018-05-10T02:08:28.558Z,0
2018-05-10T02:09:37.394Z,0
2018-05-10T02:10:46.510Z,0
2018-05-10T02:11:55.346Z,0
2018-05-10T02:13:04.606Z,0
2018-05-10T02:14:13.999Z,0
2018-05-10T02:15:22.837Z,0
2018-05-10T02:16:31.672Z,0
2018-05-10T02:17:40.512Z,0
2018-05-10T02:18:49.498Z,0
2018-05-10T02:19:58.336Z,0
2018-05-10T02:21:07.450Z,0
2018-05-10T02:22:16.291Z,0
2018-05-10T02:23:25.128Z,0
2018-05-10T02:24:34.314Z,0
2018-05-10T02:25:43.150Z,0
2018-05-10T02:26:52.260Z,0
2018-05-10T02:28:01.376Z,0
2018-05-10T02:29:10.208Z,0
2018-05-10T02:30:19.197Z,0
2018-05-10T02:31:28.583Z,0
2018-05-10T02:32:37.707Z,0
2018-05-10T02:33:46.543Z,0
2018-05-10T02:34:55.386Z,0
2018-05-10T02:36:04.923Z,0
2018-05-10T02:37:14.039Z,0
2018-05-10T02:38:23.166Z,0
2018-05-10T02:39:32.561Z,0
2018-05-10T02:40:42.040Z,0
2018-05-10T02:41:50.886Z,0
2018-05-10T02:43:00.002Z,0
2018-05-10T02:44:09.118Z,0
2018-05-10T02:45:18.226Z,0
2018-05-10T02:46:27.346Z,0
2018-05-10T02:47:36.282Z,0
2018-05-10T02:48:46.226Z,0
2018-05-10T02:49:55.344Z,0
2018-05-10T02:51:04.185Z,0
2018-05-10T02:52:13.027Z,0
2018-05-10T02:53:21.874Z,0
2018-05-10T02:54:31.074Z,0
2018-05-10T02:55:39.917Z,0
2018-05-10T02:56:48.754Z,0
2018-05-10T02:57:57.867Z,0
2018-05-10T02:59:07.242Z,0
2018-05-10T03:00:16.346Z,0
2018-05-10T03:01:26.015Z,0
2018-05-10T03:02:35.128Z,0
2018-05-10T03:03:44.519Z,0
2018-05-10T03:04:53.507Z,0
2018-05-10T03:06:02.621Z,0
2018-05-10T03:07:12.006Z,0
2018-05-10T03:08:21.400Z,0
2018-05-10T03:09:30.243Z,0
2018-05-10T03:10:39.331Z,0
2018-05-10T03:11:48.738Z,0
2018-05-10T03:12:57.847Z,0
2018-05-10T03:14:06.965Z,0
2018-05-10T03:15:16.077Z,0
2018-05-10T03:16:25.336Z,0
2018-05-10T03:17:34.447Z,0
2018-05-10T03:18:43.558Z,0
2018-05-10T03:19:52.394Z,0
2018-05-10T03:21:01.508Z,0
2018-05-10T03:22:10.619Z,0
2018-05-10T03:23:19.456Z,0
2018-05-10T03:24:28.567Z,0
2018-05-10T03:25:37.405Z,0
2018-05-10T03:26:46.518Z,0
2018-05-10T03:27:55.727Z,0
2018-05-10T03:29:04.564Z,5
2018-05-10T03:30:14.253Z,5
2018-05-10T03:31:23.661Z,5
2018-05-10T03:32:32.500Z,5
2018-05-10T03:33:41.341Z,5
2018-05-10T03:34:50.176Z,5
2018-05-10T03:35:59.013Z,5
2018-05-10T03:37:07.851Z,10
2018-05-10T03:38:16.694Z,10
2018-05-10T03:39:25.631Z,10
2018-05-10T03:40:34.846Z,10
2018-05-10T03:41:43.681Z,10
2018-05-10T03:42:52.517Z,15
2018-05-10T03:44:01.351Z,15
2018-05-10T03:45:10.618Z,15
2018-05-10T03:46:19.540Z,15
2018-05-10T03:47:28.292Z,15
2018-05-10T03:48:37.130Z,20
2018-05-10T03:49:45.963Z,20
2018-05-10T03:50:55.175Z,20
2018-05-10T03:52:04.286Z,20
2018-05-10T03:53:13.121Z,25
2018-05-10T03:54:21.958Z,25
2018-05-10T03:55:31.070Z,25
2018-05-10T03:56:40.230Z,30
2018-05-10T03:57:49.068Z,30
2018-05-10T03:58:58.260Z,30
2018-05-10T04:00:07.353Z,30
2018-05-10T04:01:16.471Z,35
2018-05-10T04:02:25.458Z,35
2018-05-10T04:03:34.302Z,40
2018-05-10T04:04:43.410Z,40
2018-05-10T04:05:52.796Z,40
2018-05-10T04:07:01.633Z,45
2018-05-10T04:08:10.744Z,45
2018-05-10T04:09:19.581Z,45
2018-05-10T04:10:28.696Z,50
2018-05-10T04:11:37.803Z,50
2018-05-10T04:12:46.638Z,50
2018-05-10T04:13:55.473Z,55
2018-05-10T04:15:04.585Z,55
2018-05-10T04:16:13.421Z,55
2018-05-10T04:17:22.532Z,60
2018-05-10T04:18:31.646Z,60
2018-05-10T04:19:40.857Z,60
2018-05-10T04:20:49.692Z,65
2018-05-10T04:21:58.528Z,65
2018-05-10T04:23:07.367Z,65
2018-05-10T04:24:16.200Z,70
2018-05-10T04:25:25.236Z,70
2018-05-10T04:26:34.073Z,70
2018-05-10T04:27:42.912Z,75
2018-05-10T04:28:51.749Z,75
2018-05-10T04:30:00.583Z,75
2018-05-10T04:31:09.851Z,80
2018-05-10T04:32:18.688Z,80
2018-05-10T04:33:27.526Z,80
2018-05-10T04:34:36.365Z,85
2018-05-10T04:35:45.601Z,85
2018-05-10T04:36:55.080Z,85
2018-05-10T04:38:04.190Z,85
2018-05-10T04:39:13.026Z,90
2018-05-10T04:40:21.863Z,90
2018-05-10T04:41:30.701Z,90
2018-05-10T04:42:39.636Z,95
2018-05-10T04:43:48.497Z,95
2018-05-10T04:44:57.612Z,95
2018-05-10T04:46:06.451Z,95
2018-05-10T04:47:15.295Z,100
2018-05-10T04:48:24.583Z,100
2018-05-10T04:49:33.421Z,100
2018-05-10T04:50:42.258Z,100
2018-05-10T04:51:51.097Z,105
2018-05-10T04:52:59.934Z,105
2018-05-10T04:54:08.769Z,105
2018-05-10T04:55:17.607Z,105
2018-05-10T04:56:26.716Z,110
2018-05-10T04:57:35.552Z,110
2018-05-10T04:58:44.389Z,110
2018-05-10T04:59:53.224Z,110
2018-05-10T05:01:02.062Z,110
2018-05-10T05:02:10.898Z,110
2018-05-10T05:03:20.110Z,110
2018-05-10T05:04:28.839Z,110
2018-05-10T05:05:38.054Z,115
2018-05-10T05:06:46.893Z,115
2018-05-10T05:07:55.727Z,115
2018-05-10T05:09:04.605Z,115
2018-05-10T05:10:13.812Z,115
2018-05-10T05:11:22.835Z,120
2018-05-10T05:12:31.583Z,120
2018-05-10T05:13:40.419Z,120
2018-05-10T05:14:49.259Z,120
2018-05-10T05:15:58.097Z,120
2018-05-10T05:17:07.368Z,125
2018-05-10T05:18:16.494Z,130
2018-05-10T05:19:25.329Z,125
2018-05-10T05:20:34.171Z,130
2018-05-10T05:21:43.007Z,125
2018-05-10T05:22:51.989Z,125
2018-05-10T05:24:00.824Z,135
2018-05-10T05:25:09.662Z,130
2018-05-10T05:26:19.051Z,130
2018-05-10T05:27:27.890Z,130
2018-05-10T05:28:36.727Z,135
2018-05-10T05:29:45.562Z,135
2018-05-10T05:30:55.235Z,135
2018-05-10T05:32:04.352Z,135
2018-05-10T05:33:13.189Z,135
2018-05-10T05:34:22.225Z,140
2018-05-10T05:35:31.100Z,140
2018-05-10T05:36:40.442Z,140
2018-05-10T05:37:50.191Z,140
2018-05-10T05:38:59.049Z,140
2018-05-10T05:40:08.145Z,140
2018-05-10T05:41:18.315Z,145
2018-05-10T05:42:27.413Z,145
2018-05-10T05:43:36.343Z,145
2018-05-10T05:44:45.099Z,145
2018-05-10T05:45:53.987Z,145
2018-05-10T05:47:02.825Z,150
2018-05-10T05:48:11.660Z,150
2018-05-10T05:49:20.496Z,150
2018-05-10T05:50:29.332Z,150
2018-05-10T05:51:38.395Z,150
2018-05-10T05:52:47.238Z,150
2018-05-10T05:53:56.073Z,150
2018-05-10T05:55:05.370Z,155
2018-05-10T05:56:14.134Z,155
2018-05-10T05:57:23.068Z,155
2018-05-10T05:58:32.180Z,155
2018-05-10T05:59:41.291Z,155
2018-05-10T06:00:50.145Z,155
2018-05-10T06:01:59.247Z,155
2018-05-10T06:03:08.413Z,160
2018-05-10T06:04:17.537Z,160
2018-05-10T06:05:26.371Z,160
2018-05-10T06:06:35.612Z,165
2018-05-10T06:07:44.447Z,160
2018-05-10T06:08:53.706Z,165
2018-05-10T06:10:02.544Z,165
2018-05-10T06:11:11.665Z,165
2018-05-10T06:12:20.502Z,165
2018-05-10T06:13:29.340Z,165
2018-05-10T06:14:38.378Z,165
2018-05-10T06:15:47.290Z,165
2018-05-10T06:16:56.330Z,165
2018-05-10T06:18:05.169Z,170
2018-05-10T06:19:14.282Z,170
2018-05-10T06:20:23.555Z,170
2018-05-10T06:21:32.397Z,170
2018-05-10T06:22:41.510Z,170
2018-05-10T06:23:50.348Z,170
2018-05-10T06:24:59.410Z,170
2018-05-10T06:26:08.894Z,175
2018-05-10T06:27:17.732Z,175
2018-05-10T06:28:26.568Z,175
2018-05-10T06:29:35.405Z,175
2018-05-10T06:30:44.244Z,175
2018-05-10T06:31:53.080Z,175
2018-05-10T06:33:01.925Z,175
2018-05-10T06:34:11.316Z,175
2018-05-10T06:35:20.155Z,175
2018-05-10T06:36:28.997Z,175
2018-05-10T06:37:37.887Z,175
2018-05-10T06:38:46.996Z,175
2018-05-10T06:39:55.833Z,175
2018-05-10T06:41:04.955Z,180
2018-05-10T06:42:13.906Z,180
2018-05-10T06:43:23.028Z,180
2018-05-10T06:44:32.156Z,175
2018-05-10T06:45:41.019Z,180
2018-05-10T06:46:50.490Z,180
2018-05-10T06:47:59.975Z,190
2018-05-10T06:49:09.148Z,195
2018-05-10T06:50:17.985Z,205
2018-05-10T06:51:26.824Z,215
2018-05-10T06:52:35.662Z,220
2018-05-10T06:53:44.523Z,230
2018-05-10T06:54:53.465Z,235
2018-05-10T06:56:02.578Z,240
2018-05-10T06:57:11.431Z,250
2018-05-10T06:58:20.585Z,255
2018-05-10T06:59:29.415Z,260
2018-05-10T07:00:38.581Z,260
2018-05-10T07:01:47.655Z,265
2018-05-10T07:02:57.114Z,260
2018-05-10T07:04:05.963Z,265
2018-05-10T07:05:14.929Z,270
2018-05-10T07:06:23.857Z,280
2018-05-10T07:07:32.709Z,290
2018-05-10T07:08:41.918Z,300
2018-05-10T07:09:51.377Z,315
2018-05-10T07:11:00.048Z,325
2018-05-10T07:12:09.050Z,330
2018-05-10T07:13:19.213Z,325
2018-05-10T07:14:28.063Z,320
2018-05-10T07:15:36.902Z,310
2018-05-10T07:16:46.282Z,305
2018-05-10T07:17:55.273Z,300
2018-05-10T07:19:04.111Z,295
2018-05-10T07:20:12.954Z,295
2018-05-10T07:21:21.804Z,305
2018-05-10T07:22:30.921Z,310
2018-05-10T07:23:39.766Z,315
2018-05-10T07:24:48.608Z,320
2018-05-10T07:25:57.464Z,325
2018-05-10T07:27:06.363Z,330
2018-05-10T07:28:15.479Z,335
2018-05-10T07:29:25.765Z,340
2018-05-10T07:30:34.878Z,345
2018-05-10T07:31:43.719Z,345
2018-05-10T07:32:52.569Z,345
2018-05-10T07:34:01.395Z,345
2018-05-10T07:35:10.346Z,340
2018-05-10T07:36:19.182Z,335
2018-05-10T07:37:28.025Z,325
2018-05-10T07:38:37.419Z,330
2018-05-10T07:39:46.527Z,335
2018-05-10T07:40:55.525Z,345
2018-05-10T07:42:04.455Z,350
2018-05-10T07:43:13.586Z,370
2018-05-10T07:44:22.703Z,375
2018-05-10T07:45:31.542Z,380
2018-05-10T07:46:40.744Z,385
2018-05-10T07:47:50.131Z,390
2018-05-10T07:48:58.971Z,395
2018-05-10T07:50:07.813Z,395
2018-05-10T07:51:16.928Z,395
2018-05-10T07:52:25.768Z,400
2018-05-10T07:53:34.887Z,405
2018-05-10T07:54:43.764Z,415
2018-05-10T07:55:52.938Z,410
2018-05-10T07:57:01.790Z,420
2018-05-10T07:58:10.793Z,420
2018-05-10T07:59:19.641Z,425
2018-05-10T08:00:28.797Z,435
2018-05-10T08:01:37.651Z,435
2018-05-10T08:02:46.776Z,440
2018-05-10T08:03:55.623Z,440
2018-05-10T08:05:04.478Z,440
2018-05-10T08:06:13.314Z,430
2018-05-10T08:07:22.154Z,415
2018-05-10T08:08:30.997Z,405
2018-05-10T08:09:40.466Z,400
2018-05-10T08:10:49.582Z,390
2018-05-10T08:11:58.422Z,400
2018-05-10T08:13:07.267Z,390
2018-05-10T08:14:16.121Z,375
2018-05-10T08:15:24.971Z,375
2018-05-10T08:16:33.827Z,370
2018-05-10T08:17:42.951Z,365
2018-05-10T08:18:51.811Z,345
2018-05-10T08:20:00.663Z,325
2018-05-10T08:21:09.672Z,305
2018-05-10T08:22:18.519Z,290
2018-05-10T08:23:27.369Z,275
2018-05-10T08:24:36.269Z,270
2018-05-10T08:25:45.373Z,265
2018-05-10T08:26:54.846Z,260
2018-05-10T08:28:03.694Z,260
2018-05-10T08:29:12.548Z,255
2018-05-10T08:30:21.883Z,255
2018-05-10T08:31:30.917Z,255
2018-05-10T08:33:09.525Z,255
2018-05-10T08:34:18.652Z,255
2018-05-10T08:35:27.556Z,260
2018-05-10T08:36:36.461Z,260
2018-05-10T08:37:45.361Z,260
2018-05-10T08:38:54.212Z,260
2018-05-10T08:40:03.063Z,255
2018-05-10T08:41:12.204Z,255
2018-05-10T08:42:21.055Z,265
2018-05-10T08:43:29.997Z,265
2018-05-10T08:44:38.963Z,270
2018-05-10T08:45:47.802Z,270
2018-05-10T08:46:56.928Z,270
2018-05-10T08:48:06.435Z,270
2018-05-10T08:49:15.436Z,270
2018-05-10T08:50:24.563Z,275
2018-05-10T08:51:33.939Z,275
2018-05-10T08:52:43.067Z,275
2018-05-10T08:53:52.180Z,275
2018-05-10T08:55:01.393Z,270
2018-05-10T08:56:10.235Z,275
2018-05-10T08:57:19.074Z,285
2018-05-10T08:58:27.914Z,290
2018-05-10T08:59:36.757Z,295
2018-05-10T09:00:45.605Z,300
2018-05-10T09:01:54.726Z,305
2018-05-10T09:03:03.661Z,300
2018-05-10T09:04:12.574Z,305
2018-05-10T09:05:21.360Z,310
2018-05-10T09:06:30.483Z,315
2018-05-10T09:07:39.324Z,315
2018-05-10T09:08:48.232Z,315
2018-05-10T09:09:57.628Z,305
2018-05-10T09:11:06.745Z,320
2018-05-10T09:12:15.586Z,340
2018-05-10T09:13:24.702Z,325
2018-05-10T09:14:33.540Z,335
2018-05-10T09:15:42.381Z,340
2018-05-10T09:16:51.500Z,335
2018-05-10T09:18:00.966Z,350
2018-05-10T09:19:10.093Z,360
2018-05-10T09:20:19.006Z,365
2018-05-10T09:21:27.768Z,365
2018-05-10T09:22:36.607Z,370
2018-05-10T09:23:45.821Z,370
2018-05-10T09:24:54.954Z,360
2018-05-10T09:26:04.250Z,355
2018-05-10T09:27:13.034Z,345
2018-05-10T09:28:21.875Z,365
2018-05-10T09:29:30.770Z,390
2018-05-10T09:30:39.605Z,415
2018-05-10T09:31:48.725Z,425
2018-05-10T09:32:57.564Z,430
2018-05-10T09:34:06.404Z,445
2018-05-10T09:35:15.676Z,465
2018-05-10T09:36:24.517Z,480
2018-05-10T09:37:33.351Z,485
2018-05-10T09:38:42.193Z,480
2018-05-10T09:39:51.035Z,470
2018-05-10T09:41:00.198Z,485
2018-05-10T09:42:09.038Z,505
2018-05-10T09:43:18.159Z,515
2018-05-10T09:44:26.994Z,525
2018-05-10T09:45:36.109Z,480
2018-05-10T09:46:45.000Z,470
2018-05-10T09:47:53.838Z,470
2018-05-10T09:49:02.952Z,475
2018-05-10T09:50:12.072Z,490
2018-05-10T09:51:20.915Z,510
2018-05-10T09:52:29.850Z,505
2018-05-10T09:53:38.688Z,490
2018-05-10T09:54:47.804Z,495
2018-05-10T09:55:56.918Z,485
2018-05-10T09:57:05.758Z,495
2018-05-10T09:58:14.951Z,520
2018-05-10T09:59:23.796Z,520
2018-05-10T10:00:33.244Z,510
2018-05-10T10:01:42.087Z,515
2018-05-10T10:02:51.202Z,520
2018-05-10T10:04:00.190Z,540
2018-05-10T10:05:09.031Z,550
2018-05-10T10:06:18.325Z,575
2018-05-10T10:07:27.091Z,610
2018-05-10T10:08:35.933Z,540
2018-05-10T10:09:44.922Z,505
2018-05-10T10:10:53.765Z,515
2018-05-10T10:12:02.876Z,520
2018-05-10T10:13:11.718Z,515
2018-05-10T10:14:20.558Z,510
2018-05-10T10:15:29.452Z,525
2018-05-10T10:16:38.303Z,515
2018-05-10T10:17:47.135Z,510
2018-05-10T10:18:55.974Z,520
2018-05-10T10:20:05.364Z,520
2018-05-10T10:21:14.206Z,530
2018-05-10T10:22:23.324Z,540
2018-05-10T10:23:32.447Z,540
2018-05-10T10:24:41.561Z,545
2018-05-10T10:25:50.401Z,555
2018-05-10T10:26:59.489Z,555
2018-05-10T10:28:08.325Z,565
2018-05-10T10:29:17.167Z,570
2018-05-10T10:30:26.012Z,590
2018-05-10T10:31:34.850Z,590
2018-05-10T10:32:43.975Z,595
2018-05-10T10:33:52.818Z,605
2018-05-10T10:35:01.662Z,620
2018-05-10T10:36:10.512Z,650
2018-05-10T10:37:19.628Z,635
2018-05-10T10:38:28.576Z,640
2018-05-10T10:39:37.408Z,625
2018-05-10T10:40:46.526Z,650
2018-05-10T10:41:55.366Z,660
2018-05-10T10:43:04.487Z,650
2018-05-10T10:44:13.801Z,625
2018-05-10T10:45:23.231Z,610
2018-05-10T10:46:32.083Z,610
2018-05-10T10:47:40.911Z,620
2018-05-10T10:48:49.750Z,620
2018-05-10T10:49:58.932Z,650
2018-05-10T10:51:07.771Z,630
2018-05-10T10:52:16.612Z,635
2018-05-10T10:53:25.741Z,625
2018-05-10T10:54:34.582Z,610
2018-05-10T10:55:43.573Z,620
2018-05-10T10:56:52.410Z,620
2018-05-10T10:58:01.251Z,625
2018-05-10T10:59:10.371Z,640
2018-05-10T11:00:19.209Z,635
2018-05-10T11:01:28.050Z,645
2018-05-10T11:02:36.892Z,675
2018-05-10T11:03:45.734Z,675
2018-05-10T11:04:54.574Z,675
2018-05-10T11:06:03.414Z,685
2018-05-10T11:07:12.589Z,700
2018-05-10T11:08:21.425Z,705
2018-05-10T11:09:30.266Z,730
2018-05-10T11:10:39.109Z,750
2018-05-10T11:11:47.950Z,760
2018-05-10T11:12:56.790Z,775
2018-05-10T11:14:05.629Z,785
2018-05-10T11:15:14.915Z,800
2018-05-10T11:16:23.758Z,845
2018-05-10T11:17:32.599Z,730
2018-05-10T11:18:41.768Z,800
2018-05-10T11:19:50.888Z,820
2018-05-10T11:21:00.388Z,805
2018-05-10T11:22:09.505Z,815
2018-05-10T11:23:18.346Z,845
2018-05-10T11:24:27.186Z,910
2018-05-10T11:25:36.029Z,895
2018-05-10T11:26:45.419Z,900
2018-05-10T11:27:54.261Z,805
2018-05-10T11:29:03.107Z,960
2018-05-10T11:30:11.997Z,970
2018-05-10T11:31:20.847Z,825
2018-05-10T11:32:29.679Z,925
2018-05-10T11:33:38.795Z,950
2018-05-10T11:34:47.643Z,960
2018-05-10T11:35:56.905Z,825
2018-05-10T11:37:06.027Z,880
2018-05-10T11:38:14.867Z,1060
2018-05-10T11:39:23.707Z,1090
2018-05-10T11:40:32.552Z,990
2018-05-10T11:41:41.638Z,805
2018-05-10T11:42:50.485Z,795
2018-05-10T11:43:59.325Z,810
2018-05-10T11:45:08.169Z,945
2018-05-10T11:46:17.015Z,1060
2018-05-10T11:47:26.006Z,1085
2018-05-10T11:48:34.850Z,1065
2018-05-10T11:49:43.688Z,980
2018-05-10T11:50:52.805Z,855
2018-05-10T11:52:01.647Z,820
2018-05-10T11:53:10.689Z,755
2018-05-10T11:54:19.531Z,770
2018-05-10T11:55:28.373Z,780
2018-05-10T11:56:37.215Z,925
2018-05-10T11:57:46.335Z,690
2018-05-10T11:58:56.377Z,785
2018-05-10T12:00:05.222Z,1090
2018-05-10T12:01:14.067Z,575
2018-05-10T12:02:22.903Z,500
2018-05-10T12:03:31.744Z,470
2018-05-10T12:04:40.939Z,420
2018-05-10T12:05:50.057Z,355
2018-05-10T12:06:58.898Z,325
2018-05-10T12:08:08.018Z,365
2018-05-10T12:09:17.416Z,400
2018-05-10T12:10:26.608Z,400
2018-05-10T12:11:35.460Z,315
2018-05-10T12:12:44.293Z,325
2018-05-10T12:13:53.138Z,385
2018-05-10T12:15:01.978Z,385
2018-05-10T12:16:11.191Z,315
2018-05-10T12:17:20.030Z,315
2018-05-10T12:18:28.869Z,335
2018-05-10T12:19:37.985Z,465
2018-05-10T12:20:46.828Z,360
2018-05-10T12:21:55.819Z,350
2018-05-10T12:23:04.659Z,265
2018-05-10T12:24:13.783Z,315
2018-05-10T12:25:22.625Z,350
2018-05-10T12:26:32.013Z,315
2018-05-10T12:27:41.281Z,305
2018-05-10T12:28:50.119Z,270
2018-05-10T12:29:58.958Z,290
2018-05-10T12:31:07.798Z,245
2018-05-10T12:32:16.640Z,245
2018-05-10T12:33:26.155Z,230
2018-05-10T12:34:34.996Z,210
2018-05-10T12:35:43.832Z,200
2018-05-10T12:36:52.957Z,210
2018-05-10T12:38:01.792Z,230
2018-05-10T12:39:10.632Z,270
2018-05-10T12:40:19.749Z,325
2018-05-10T12:41:28.637Z,370
2018-05-10T12:42:37.431Z,400
2018-05-10T12:43:46.822Z,380
2018-05-10T12:44:55.758Z,370
2018-05-10T12:46:04.605Z,400
2018-05-10T12:47:13.438Z,395
2018-05-10T12:48:22.279Z,390
2018-05-10T12:49:31.123Z,385
2018-05-10T12:50:40.312Z,355
2018-05-10T12:51:49.422Z,290
2018-05-10T12:52:58.534Z,225
2018-05-10T12:54:07.371Z,180
2018-05-10T12:55:16.211Z,175
2018-05-10T12:56:25.208Z,185
2018-05-10T12:57:33.993Z,195
2018-05-10T12:58:42.832Z,210
2018-05-10T12:59:51.673Z,235
2018-05-10T13:01:00.512Z,240
2018-05-10T13:02:09.448Z,225
2018-05-10T13:03:18.286Z,230
2018-05-10T13:04:27.126Z,240
2018-05-10T13:05:36.240Z,245
2018-05-10T13:06:45.442Z,240
2018-05-10T13:07:54.609Z,260
2018-05-10T13:09:03.450Z,270
2018-05-10T13:10:12.292Z,255
2018-05-10T13:11:21.413Z,235
2018-05-10T13:12:30.571Z,225
2018-05-10T13:13:39.687Z,265
2018-05-10T13:14:48.805Z,250
2018-05-10T13:15:58.207Z,225
2018-05-10T13:17:07.314Z,225
2018-05-10T13:18:16.160Z,210
2018-05-10T13:19:25.379Z,185
2018-05-10T13:20:34.140Z,180
2018-05-10T13:21:43.031Z,180
2018-05-10T13:22:51.818Z,170
2018-05-10T13:24:00.659Z,165
2018-05-10T13:25:09.794Z,170
2018-05-10T13:26:18.634Z,175
2018-05-10T13:27:28.297Z,155
2018-05-10T13:28:37.134Z,145
2018-05-10T13:29:45.973Z,130
2018-05-10T13:30:54.909Z,125
2018-05-10T13:32:03.750Z,120
2018-05-10T13:33:12.593Z,130
2018-05-10T13:34:21.430Z,135
2018-05-10T13:35:30.538Z,150
2018-05-10T13:36:39.709Z,195
2018-05-10T13:37:48.597Z,210
2018-05-10T13:38:57.709Z,215
2018-05-10T13:40:06.546Z,210
2018-05-10T13:41:15.668Z,220
2018-05-10T13:42:24.495Z,220
2018-05-10T13:43:33.336Z,240
2018-05-10T13:44:42.171Z,215
2018-05-10T13:45:51.009Z,265
2018-05-10T13:46:59.921Z,340
2018-05-10T13:48:08.783Z,425
2018-05-10T13:49:17.642Z,475
2018-05-10T13:50:27.418Z,475
2018-05-10T13:51:36.257Z,550
2018-05-10T13:52:45.372Z,605
2018-05-10T13:53:54.259Z,475
2018-05-10T13:55:03.096Z,415
2018-05-10T13:56:11.932Z,615
2018-05-10T13:57:20.775Z,725
2018-05-10T13:58:29.613Z,745
2018-05-10T13:59:38.598Z,715
2018-05-10T14:00:47.437Z,680
2018-05-10T14:01:56.272Z,650
2018-05-10T14:03:05.111Z,555
2018-05-10T14:04:14.223Z,675
2018-05-10T14:05:23.209Z,685
2018-05-10T14:06:32.046Z,635
2018-05-10T14:07:40.884Z,540
2018-05-10T14:08:49.724Z,490
2018-05-10T14:09:58.559Z,470
2018-05-10T14:11:07.798Z,495
2018-05-10T14:12:16.569Z,470
2018-05-10T14:13:25.407Z,515
2018-05-10T14:14:34.246Z,630
2018-05-10T14:15:43.360Z,655
2018-05-10T14:16:52.346Z,805
2018-05-10T14:18:01.188Z,745
2018-05-10T14:19:10.033Z,565
2018-05-10T14:20:18.872Z,480
2018-05-10T14:21:27.712Z,400
2018-05-10T14:22:36.699Z,370
2018-05-10T14:23:45.817Z,305
2018-05-10T14:24:54.655Z,330
2018-05-10T14:26:03.495Z,350
2018-05-10T14:27:12.338Z,350
2018-05-10T14:28:21.324Z,360
2018-05-10T14:29:30.996Z,375
2018-05-10T14:30:39.834Z,355
2018-05-10T14:31:48.671Z,290
2018-05-10T14:32:57.852Z,225
2018-05-10T14:34:06.649Z,190
2018-05-10T14:35:15.487Z,200
2018-05-10T14:36:24.324Z,235
2018-05-10T14:37:33.161Z,290
2018-05-10T14:38:42.281Z,425
2018-05-10T14:39:51.553Z,460
2018-05-10T14:41:00.767Z,490
2018-05-10T14:42:09.511Z,545
2018-05-10T14:43:18.624Z,605
2018-05-10T14:44:27.460Z,715
2018-05-10T14:45:36.346Z,740
2018-05-10T14:46:45.537Z,805
2018-05-10T14:47:54.380Z,880
2018-05-10T14:49:03.213Z,930
2018-05-10T14:50:12.338Z,840
2018-05-10T14:51:21.525Z,720
2018-05-10T14:52:30.363Z,625
2018-05-10T14:53:39.205Z,560
2018-05-10T14:54:48.039Z,550
2018-05-10T14:55:56.878Z,510
2018-05-10T14:57:06.094Z,470
2018-05-10T14:58:15.214Z,440
2018-05-10T14:59:24.053Z,425
2018-05-10T15:00:32.894Z,415
2018-05-10T15:01:41.733Z,420
2018-05-10T15:02:50.882Z,440
2018-05-10T15:03:59.995Z,495
2018-05-10T15:05:09.112Z,525
2018-05-10T15:06:18.225Z,490
2018-05-10T15:07:27.062Z,420
2018-05-10T15:08:35.898Z,370
2018-05-10T15:09:44.739Z,350
2018-05-10T15:10:53.861Z,320
2018-05-10T15:12:02.701Z,275
2018-05-10T15:13:11.538Z,235
2018-05-10T15:14:20.423Z,215
2018-05-10T15:15:29.275Z,240
2018-05-10T15:16:38.099Z,225
2018-05-10T15:17:46.938Z,210
2018-05-10T15:18:55.774Z,240
2018-05-10T15:20:04.760Z,250
2018-05-10T15:21:13.599Z,265
2018-05-10T15:22:22.433Z,280
2018-05-10T15:23:31.325Z,345
2018-05-10T15:24:40.107Z,345
2018-05-10T15:25:49.318Z,345
2018-05-10T15:26:58.154Z,330
2018-05-10T15:28:06.995Z,320
2018-05-10T15:29:15.832Z,350
2018-05-10T15:30:24.670Z,350
2018-05-10T15:31:34.064Z,350
2018-05-10T15:32:42.899Z,335
2018-05-10T15:33:51.736Z,320
2018-05-10T15:35:00.575Z,300
2018-05-10T15:36:09.414Z,295
2018-05-10T15:37:18.251Z,305
2018-05-10T15:38:27.091Z,315
2018-05-10T15:39:35.937Z,325
2018-05-10T15:40:44.775Z,340
2018-05-10T15:41:53.966Z,360
2018-05-10T15:43:02.861Z,390
2018-05-10T15:44:11.688Z,430
2018-05-10T15:45:20.526Z,455
2018-05-10T15:46:29.648Z,415
2018-05-10T15:47:38.484Z,355
2018-05-10T15:48:47.371Z,330
2018-05-10T15:49:56.209Z,330
2018-05-10T15:51:05.327Z,345
2018-05-10T15:52:14.158Z,355
2018-05-10T15:53:22.995Z,365
2018-05-10T15:54:31.831Z,370
2018-05-10T15:55:40.668Z,385
2018-05-10T15:56:49.784Z,465
2018-05-10T15:57:58.626Z,565
2018-05-10T15:59:07.467Z,595
2018-05-10T16:00:16.653Z,570
2018-05-10T16:01:25.490Z,585
2018-05-10T16:02:34.331Z,625
2018-05-10T16:03:43.174Z,520
2018-05-10T16:04:52.009Z,465
2018-05-10T16:06:00.998Z,435
2018-05-10T16:07:10.124Z,405